Skip Navigation Links
NOAA logo - Click to go to the NOAA homepage
NOAA's National Weather Service
Alaska Aviation Weather Unit
  NWS logo - Click to go to the NWS homepage
Left Navbar Graphic     17 AKDT = 01 GMT

   
NOAA is celebrating 200 years of science, service, and stewardship. Visit the NOAA 200th celebration Web site to learn more.
USA.gov is the U.S. Government's official Web portal to all Federal, state and local government Web resources and services.
Facebook
NWS on Facebook

Important Change Regarding the AAWU Web Presence

 

Over the last several months, the AAWU has been working to navigate its webpages to a nationally supported server. Security, as well as other needs, have necessitated the change.  We have been given an extension for the site changeover while we diligently work at addressing feedback received. As of July 14, 2017, aawu.arh.noaa.gov will be discontinued. The new AAWU web address is weather.gov/aawu. It is now live and will run in-parallel with the old site until it is discontinued on July 14, 2017. Please continue to send any feedback or questions regarding the new webpages to nws.ar.aawu.webauthors@noaa.gov.  Thank you for your patience during this time of transition.
AAWU Home :: Display TAF Add Bookmark
PALU 171928Z 34013KT 10SM -SHRASN BKN018 BKN050 01/M02 A2959=

PALU 171933Z 35011KT 10SM BKN018 BKN055 01/M02 A2959=

METAR PALU 171955Z 33011KT 10SM BKN015 BKN060 00/M01 A2959=

PALU 172007Z 34010KT 9SM -SHSN BKN015 00/M01 A2959=

PALU 172018Z 33009KT 2SM -SHSN FEW007 BKN016 00/M01 A2959=

PALU 172039Z 32005KT 10SM -SHSN BKN007 BKN035 BKN045 00/M01 A2959=

METAR PALU 172059Z 33019KT 2SM -SHSN BKN011 BKN045 00/M01 A2958=

PALU 172112Z 33010G20KT 5SM -SHSN BKN010 BKN050 00/M01 A2959=

PALU 172132Z 31006KT 10SM BKN009 BKN055 00/M01 A2958=

PALU 172147Z 35015KT 10SM -SHRA BKN016 BKN090 01/M02 A2957=

METAR PALU 172159Z 36015KT 10SM -SHRA BKN016 01/M01 A2958=

PALU 172318Z AUTO 35009KT 6SM -SN BKN010 00/M01 A2957=

PALU 172338Z AUTO 01013KT 8SM -SHSN BKN014 00/M02 A2957=

METAR PALU 172355Z AUTO 36021KT 10SM FEW018 BKN023 01/M01 A2957=

PALU 172358Z AUTO 36021KT 10SM -SHRA FEW013 BKN027 01/M01 A2957=

PALU 180038Z AUTO 01011KT 9SM SCT016 SCT045 BKN055 01/M01 A2957=

METAR PALU 180055Z AUTO 02019KT 3/4SM -SHSN BKN009 00/M01 A2957=

PALU 180118Z AUTO 03009KT 6SM -SHSN BKN011 BKN050 BKN075 00/M01
A2957=


NOAA's National Weather Service
Alaska Aviation Weather Unit
6930 Sand Lake Road
Anchorage, AK 99502-1845
Disclaimer
Credits
Glossary
Privacy Policy
About Us
Career Opportunities
Contact AAWU Internet Services Site last modified: April, 17th 2012